Time;durP1;ratioP1;P1;durP2;ratioP2;P2;SDS_P1;SDS_P2;PMS_P1;PMS_P2;Temp;Humidity;BMP_temperature;BMP_pressure;BME280_temperature;BME280_humidity;BME280_pressure;Samples;Min_cycle;Max_cycle;Signal;HPM_P1;HPM_P2
2023/04/04 00:00:55;;;;;;;4.85;2.10;;;;;;;4.24;65.41;101828.78;8458542;28;20563;-52
2023/04/04 00:04:56;;;;;;;3.95;2.22;;;;;;;4.21;65.88;101831.59;8458629;28;20489;-54
2023/04/04 00:08:56;;;;;;;3.55;1.65;;;;;;;4.20;65.92;101835.22;8457482;28;20051;-54
2023/04/04 00:12:57;;;;;;;5.60;1.80;;;;;;;4.16;66.21;101833.59;8456841;28;20554;-55
2023/04/04 00:16:58;;;;;;;6.05;2.38;;;;;;;4.09;66.31;101823.16;8457204;28;20470;-54
2023/04/04 00:20:58;;;;;;;5.10;1.75;;;;;;;4.15;65.70;101831.88;8457893;28;20421;-53
2023/04/04 00:24:59;;;;;;;5.82;1.95;;;;;;;4.15;65.89;101831.88;8457908;28;20050;-59
2023/04/04 00:28:59;;;;;;;4.03;1.75;;;;;;;4.00;66.28;101839.63;8457854;28;20043;-59
2023/04/04 00:33:00;;;;;;;5.13;2.00;;;;;;;4.08;65.92;101831.25;8457580;28;20405;-58
2023/04/04 00:37:01;;;;;;;4.10;1.98;;;;;;;3.86;66.98;101835.81;8457348;28;20043;-59
2023/04/04 00:41:02;;;;;;;6.75;1.75;;;;;;;3.79;67.18;101829.84;8456963;28;20061;-58
2023/04/04 00:45:05;;;;;;;3.85;2.10;;;;;;;3.73;67.79;101830.09;8452777;28;20040;-59
2023/04/04 00:49:06;;;;;;;6.35;1.88;;;;;;;3.64;68.23;101819.84;8456162;28;20039;-59
2023/04/04 00:53:06;;;;;;;6.50;2.22;;;;;;;3.59;68.32;101824.50;8456002;28;20433;-58
2023/04/04 00:57:07;;;;;;;4.78;1.90;;;;;;;3.78;67.31;101835.25;8451514;28;20051;-58
2023/04/04 01:01:10;;;;;;;3.60;1.67;;;;;;;3.71;67.56;101826.66;8450539;28;20036;-58
2023/04/04 01:05:11;;;;;;;5.20;2.00;;;;;;;3.87;66.71;101833.06;8427697;28;20371;-58
2023/04/04 01:09:12;;;;;;;6.32;2.00;;;;;;;3.94;66.27;101839.88;8419280;28;20044;-58
2023/04/04 01:13:14;;;;;;;5.03;1.70;;;;;;;3.92;66.35;101841.78;8432041;28;20039;-58
2023/04/04 01:17:15;;;;;;;4.43;2.20;;;;;;;3.79;67.09;101832.53;8456500;28;20417;-58
2023/04/04 01:21:20;;;;;;;2.63;1.58;;;;;;;3.69;67.87;101838.34;8455715;28;20031;-58
2023/04/04 01:25:30;;;;;;;3.22;2.13;;;;;;;3.48;68.47;101834.75;8455904;28;20087;-57
2023/04/04 01:29:33;;;;;;;4.15;2.33;;;;;;;3.41;69.25;101835.94;8456887;28;20027;-58
2023/04/04 01:33:40;;;;;;;3.67;1.50;;;;;;;3.41;68.82;101838.63;8456352;28;20062;-58
2023/04/04 01:37:51;;;;;;;4.72;2.10;;;;;;;3.46;68.51;101831.28;8455977;28;20101;-58
2023/04/04 01:41:55;;;;;;;4.47;1.80;;;;;;;3.52;68.43;101831.03;8456582;28;20036;-57
2023/04/04 01:45:58;;;;;;;6.28;2.00;;;;;;;3.28;68.67;101832.06;8455781;28;20032;-57
2023/04/04 01:49:59;;;;;;;5.63;1.85;;;;;;;3.33;69.04;101832.72;8455506;28;20076;-57
2023/04/04 01:54:00;;;;;;;3.20;1.73;;;;;;;3.04;70.47;101833.03;8455711;28;20039;-59
2023/04/04 01:58:02;;;;;;;2.90;2.05;;;;;;;3.04;70.58;101827.69;8455507;28;20123;-58
2023/04/04 02:02:04;;;;;;;3.35;1.92;;;;;;;3.06;70.50;101841.88;8456125;28;20045;-58
2023/04/04 02:06:06;;;;;;;6.45;2.47;;;;;;;2.88;71.35;101826.56;8460766;28;20600;-58
2023/04/04 02:10:07;;;;;;;4.47;2.40;;;;;;;2.79;72.40;101826.91;8443503;28;20052;-58
2023/04/04 02:14:08;;;;;;;4.10;2.28;;;;;;;2.78;72.03;101829.66;8462224;28;20035;-58
2023/04/04 02:18:09;;;;;;;5.13;2.28;;;;;;;2.62;72.23;101826.69;8461762;28;20118;-58
2023/04/04 02:22:10;;;;;;;4.80;2.30;;;;;;;2.65;72.27;101818.56;8462321;28;20043;-58
2023/04/04 02:26:10;;;;;;;7.05;2.22;;;;;;;2.76;71.74;101824.38;8461891;28;20039;-53
2023/04/04 02:30:11;;;;;;;7.85;2.42;;;;;;;2.82;71.68;101826.81;8461887;28;20123;-54
2023/04/04 02:34:12;;;;;;;4.60;2.33;;;;;;;2.71;71.89;101818.31;8461674;28;20167;-53
2023/04/04 02:38:12;;;;;;;8.52;2.22;;;;;;;2.60;72.60;101815.22;8461614;28;20040;-53
2023/04/04 02:42:17;;;;;;;5.70;1.90;;;;;;;2.58;73.13;101822.41;8461665;28;20200;-53
2023/04/04 02:46:19;;;;;;;3.92;2.35;;;;;;;2.52;73.91;101811.09;8461095;28;20039;-53
2023/04/04 02:50:20;;;;;;;3.95;2.15;;;;;;;2.47;74.33;101802.41;8427707;28;20045;-55
2023/04/04 02:54:26;;;;;;;6.35;3.00;;;;;;;2.49;74.25;101797.84;8425492;28;20089;-53
2023/04/04 02:58:27;;;;;;;4.60;2.38;;;;;;;2.29;74.95;101782.63;8426399;28;20040;-52
2023/04/04 03:02:28;;;;;;;3.78;2.20;;;;;;;2.23;75.04;101788.19;8427519;28;20091;-53
2023/04/04 03:06:31;;;;;;;5.88;2.10;;;;;;;2.27;75.28;101792.47;8427205;28;20520;-53
2023/04/04 03:10:32;;;;;;;4.68;2.35;;;;;;;2.15;75.49;101787.59;8426893;28;20032;-52
2023/04/04 03:14:33;;;;;;;6.32;2.50;;;;;;;2.41;74.19;101802.63;8426634;28;20035;-53
2023/04/04 03:18:33;;;;;;;4.65;2.28;;;;;;;2.49;73.85;101797.84;8425867;28;20059;-52
2023/04/04 03:22:34;;;;;;;5.88;2.35;;;;;;;2.50;73.81;101797.78;8426329;28;20032;-52
2023/04/04 03:26:36;;;;;;;4.05;2.03;;;;;;;2.24;75.02;101803.25;8426553;28;20114;-52
2023/04/04 03:30:37;;;;;;;5.03;1.90;;;;;;;2.25;74.66;101810.31;8427122;28;20040;-52
2023/04/04 03:34:38;;;;;;;3.33;2.33;;;;;;;2.23;74.86;101809.53;8425428;28;20044;-53
2023/04/04 03:38:39;;;;;;;4.90;2.40;;;;;;;2.21;74.35;101811.38;8425806;28;20047;-52
2023/04/04 03:42:40;;;;;;;3.60;2.35;;;;;;;1.87;76.18;101806.38;8425092;28;20149;-52
2023/04/04 03:46:44;;;;;;;6.20;2.50;;;;;;;2.04;75.49;101803.09;8425900;28;20039;-52
2023/04/04 03:50:47;;;;;;;2.92;2.20;;;;;;;1.98;75.71;101798.00;8426124;28;20040;-51
2023/04/04 03:54:47;;;;;;;5.40;2.15;;;;;;;1.90;75.75;101800.06;8425536;28;20089;-53
2023/04/04 03:58:48;;;;;;;3.67;2.25;;;;;;;1.84;76.01;101797.63;8425421;28;20048;-53
2023/04/04 04:02:52;;;;;;;4.80;2.58;;;;;;;1.91;75.58;101797.34;8433734;28;20040;-56
2023/04/04 04:06:52;;;;;;;6.93;2.70;;;;;;;1.85;75.93;101802.03;8457218;28;20047;-53
2023/04/04 04:10:53;;;;;;;4.93;2.88;;;;;;;1.81;76.22;101800.41;8458537;28;20131;-54
2023/04/04 04:14:54;;;;;;;4.55;2.33;;;;;;;1.84;76.40;101800.28;8431986;28;20060;-57
2023/04/04 04:18:55;;;;;;;5.75;2.60;;;;;;;1.85;76.39;101786.03;8424054;28;20036;-57
2023/04/04 04:23:06;;;;;;;5.13;2.28;;;;;;;2.02;75.15;101780.97;8434440;28;20244;-58
2023/04/04 04:27:06;;;;;;;4.13;3.17;;;;;;;2.02;75.44;101784.50;8456508;28;20035;-58
2023/04/04 04:31:08;;;;;;;6.35;2.42;;;;;;;1.90;75.76;101782.25;8441635;28;20040;-58
2023/04/04 04:35:15;;;;;;;6.57;2.45;;;;;;;2.03;75.28;101788.91;8422291;28;20035;-58
2023/04/04 04:39:17;;;;;;;5.88;2.58;;;;;;;2.09;74.98;101790.47;8440518;28;20046;-58
2023/04/04 04:43:31;;;;;;;6.00;2.95;;;;;;;2.08;75.37;101789.59;8434550;28;20036;-58
2023/04/04 04:47:32;;;;;;;5.20;2.60;;;;;;;2.00;75.94;101786.38;8457439;28;20119;-57
2023/04/04 04:51:35;;;;;;;7.97;3.17;;;;;;;1.96;75.42;101789.19;8436037;28;20148;-58
2023/04/04 04:55:36;;;;;;;3.92;2.58;;;;;;;1.82;75.49;101784.34;8413891;28;20097;-58
2023/04/04 04:59:40;;;;;;;5.45;3.00;;;;;;;1.73;76.37;101790.00;8423463;28;20525;-57
2023/04/04 05:03:43;;;;;;;6.57;2.90;;;;;;;1.68;76.35;101778.63;8423783;28;20047;-57
2023/04/04 05:07:48;;;;;;;9.40;3.17;;;;;;;1.75;75.91;101782.84;8423214;28;20104;-56
2023/04/04 05:11:49;;;;;;;5.68;2.38;;;;;;;1.74;76.09;101783.75;8421836;28;20047;-56
2023/04/04 05:15:54;;;;;;;3.55;2.33;;;;;;;1.52;76.75;101761.44;8454966;28;20571;-56
2023/04/04 05:19:55;;;;;;;5.88;2.67;;;;;;;1.59;77.18;101788.75;8456592;28;20494;-56
2023/04/04 05:23:57;;;;;;;5.10;2.47;;;;;;;1.76;76.67;101794.34;8435121;28;20035;-56
2023/04/04 05:27:59;;;;;;;4.55;2.83;;;;;;;1.74;77.08;101791.75;8386466;28;20127;-57
2023/04/04 05:32:00;;;;;;;9.68;2.83;;;;;;;1.75;76.64;101795.28;8421077;28;20127;-56
2023/04/04 05:36:02;;;;;;;6.85;2.58;;;;;;;1.97;75.82;101796.25;8420221;28;20498;-56
2023/04/04 05:40:06;;;;;;;5.18;2.72;;;;;;;2.24;74.57;101802.38;8423082;28;20036;-56
2023/04/04 05:44:08;;;;;;;4.57;2.40;;;;;;;2.41;74.14;101798.13;8423283;27;20072;-56
2023/04/04 05:48:09;;;;;;;4.07;2.25;;;;;;;2.65;73.60;101813.22;8421116;28;22206;-56
2023/04/04 05:52:20;;;;;;;5.57;2.53;;;;;;;2.86;73.37;101812.38;8422836;28;20165;-55
2023/04/04 05:56:23;;;;;;;3.60;2.45;;;;;;;3.07;73.46;101808.88;8425871;28;20328;-56
2023/04/04 06:00:26;;;;;;;6.60;2.45;;;;;;;3.14;72.58;101818.38;8427029;28;20504;-56
2023/04/04 06:04:39;;;;;;;4.43;2.65;;;;;;;3.38;71.91;101817.38;8426715;28;20457;-57
2023/04/04 06:08:40;;;;;;;6.40;3.10;;;;;;;3.69;71.73;101817.81;8424424;28;20036;-57
2023/04/04 06:12:41;;;;;;;8.13;2.90;;;;;;;3.74;71.18;101831.88;8418007;28;20090;-56
2023/04/04 06:16:45;;;;;;;8.73;2.58;;;;;;;3.83;71.74;101836.81;8423903;28;20028;-56
2023/04/04 06:20:45;;;;;;;8.85;2.65;;;;;;;3.98;70.05;101836.16;8427355;28;20047;-56
2023/04/04 06:24:46;;;;;;;7.85;2.88;;;;;;;4.26;70.33;101845.63;8415070;28;20037;-56
2023/04/04 06:28:48;;;;;;;10.80;3.15;;;;;;;4.47;69.15;101836.63;8394807;28;20116;-56
2023/04/04 06:32:51;;;;;;;7.97;3.25;;;;;;;4.65;67.73;101838.47;8413600;28;20036;-56
2023/04/04 06:36:55;;;;;;;9.15;3.30;;;;;;;4.93;67.33;101833.56;8427274;28;20097;-56
2023/04/04 06:40:59;;;;;;;10.70;2.47;;;;;;;5.10;65.40;101828.25;8425525;28;20063;-56
2023/04/04 06:45:00;;;;;;;4.43;2.58;;;;;;;5.28;64.75;101830.06;8404024;28;20457;-56
2023/04/04 06:49:00;;;;;;;8.50;2.75;;;;;;;5.38;64.83;101839.38;8409792;28;20032;-56
2023/04/04 06:53:01;;;;;;;7.30;3.28;;;;;;;5.53;64.37;101844.00;8414050;28;20059;-56
2023/04/04 06:57:03;;;;;;;6.97;2.28;;;;;;;5.59;62.15;101841.00;8410375;28;20341;-56
2023/04/04 07:01:04;;;;;;;8.45;3.17;;;;;;;5.78;63.83;101852.53;8408848;28;20085;-56
2023/04/04 07:05:05;;;;;;;5.00;2.45;;;;;;;5.87;62.69;101857.47;8408292;28;20439;-56
2023/04/04 07:09:06;;;;;;;4.93;2.25;;;;;;;5.91;61.66;101859.03;8409747;28;20029;-56
2023/04/04 07:13:07;;;;;;;5.43;2.47;;;;;;;6.17;61.64;101858.56;8402716;28;20100;-56
2023/04/04 07:17:07;;;;;;;6.60;2.30;;;;;;;6.34;60.49;101857.69;8405943;28;20036;-56
2023/04/04 07:21:08;;;;;;;5.15;2.03;;;;;;;6.32;59.63;101860.47;8417858;28;20042;-57
2023/04/04 07:25:09;;;;;;;8.93;2.22;;;;;;;6.32;59.28;101871.22;8406766;28;20513;-57
2023/04/04 07:29:10;;;;;;;5.03;2.17;;;;;;;6.44;57.95;101859.81;8421041;28;20047;-57
2023/04/04 07:33:10;;;;;;;4.93;2.15;;;;;;;6.60;57.77;101866.09;8421117;28;20551;-56
2023/04/04 07:37:11;;;;;;;4.38;2.22;;;;;;;6.65;57.68;101869.38;8398729;28;20045;-56
2023/04/04 07:41:11;;;;;;;4.32;1.80;;;;;;;6.89;57.45;101880.66;8387622;28;20414;-56
2023/04/04 07:45:13;;;;;;;6.47;2.03;;;;;;;6.90;57.22;101869.81;8415393;28;20062;-56
2023/04/04 07:49:13;;;;;;;4.70;1.92;;;;;;;6.93;56.55;101863.38;8452359;28;20040;-56
2023/04/04 07:53:13;;;;;;;9.43;2.55;;;;;;;7.12;57.60;101858.72;8436477;28;20409;-56
2023/04/04 07:57:14;;;;;;;6.80;2.50;;;;;;;7.32;56.53;101856.63;8436977;28;20039;-56
2023/04/04 08:01:15;;;;;;;7.43;2.15;;;;;;;7.91;60.49;101858.56;8420210;28;20043;-56
2023/04/04 08:05:15;;;;;;;7.03;2.55;;;;;;;7.24;55.22;101858.91;8420092;28;20047;-57
2023/04/04 08:09:16;;;;;;;6.05;2.53;;;;;;;6.85;55.29;101853.06;8421279;28;20050;-57
2023/04/04 08:13:16;;;;;;;7.07;2.28;;;;;;;7.27;55.83;101850.66;8419032;28;20032;-58
2023/04/04 08:17:17;;;;;;;3.72;2.50;;;;;;;7.39;54.96;101852.66;8434539;28;20046;-58
2023/04/04 08:21:18;;;;;;;4.72;2.30;;;;;;;7.12;55.00;101848.84;8447252;28;20131;-58
2023/04/04 08:25:18;;;;;;;7.20;2.28;;;;;;;7.08;54.44;101836.50;8425697;28;20039;-58
2023/04/04 08:29:19;;;;;;;4.60;2.30;;;;;;;7.18;54.17;101843.13;8419147;28;20105;-57
2023/04/04 08:33:22;;;;;;;8.98;2.63;;;;;;;7.61;55.59;101838.81;8418712;28;20113;-51
2023/04/04 08:37:22;;;;;;;5.55;2.58;;;;;;;7.94;53.80;101829.59;8418570;28;20123;-57
2023/04/04 08:41:24;;;;;;;7.20;3.10;;;;;;;7.89;54.77;101820.94;8419429;28;20153;-52
2023/04/04 08:45:26;;;;;;;6.82;3.03;;;;;;;8.11;55.11;101827.72;8418576;28;20040;-53
2023/04/04 08:49:30;;;;;;;4.45;2.28;;;;;;;7.96;53.20;101826.81;8418426;28;20032;-52
2023/04/04 08:53:33;;;;;;;5.25;2.20;;;;;;;8.00;52.22;101823.84;8418954;28;20084;-55
2023/04/04 08:57:34;;;;;;;7.97;3.13;;;;;;;8.12;53.81;101829.47;8417317;28;20044;-53
2023/04/04 09:01:35;;;;;;;5.38;3.25;;;;;;;8.17;52.90;101830.06;8418855;28;20157;-53
2023/04/04 09:05:36;;;;;;;7.68;2.90;;;;;;;7.80;53.08;101829.56;8385180;28;20139;-54
2023/04/04 09:09:37;;;;;;;6.13;2.53;;;;;;;8.21;51.66;101826.22;8415768;28;20081;-53
2023/04/04 09:13:40;;;;;;;5.15;3.10;;;;;;;8.39;52.42;101825.13;8418754;28;20039;-54
2023/04/04 09:17:41;;;;;;;4.82;2.63;;;;;;;8.34;51.45;101832.59;8417379;28;20498;-54
2023/04/04 09:21:45;;;;;;;7.35;2.78;;;;;;;8.42;50.36;101831.16;8404695;28;20442;-54
2023/04/04 09:25:50;;;;;;;;;;;;;;;8.54;50.71;101834.94;8404032;28;20036;-53
2023/04/04 09:29:51;;;;;;;8.43;3.10;;;;;;;8.44;51.30;101840.03;8418640;28;19920;-54
2023/04/04 09:33:52;;;;;;;8.35;3.33;;;;;;;8.88;51.29;101834.56;8418833;28;20516;-53
2023/04/04 09:37:52;;;;;;;6.40;2.85;;;;;;;10.93;50.65;101832.94;8416513;28;20043;-54
2023/04/04 09:41:53;;;;;;;4.40;2.28;;;;;;;12.14;45.67;101816.50;8417114;28;20127;-53
2023/04/04 09:45:54;;;;;;;5.45;3.00;;;;;;;12.68;44.79;101814.00;8417676;28;20599;-54
2023/04/04 09:50:04;;;;;;;7.15;3.05;;;;;;;12.87;43.29;101808.88;8418646;28;20406;-55
2023/04/04 09:54:05;;;;;;;4.45;3.03;;;;;;;12.81;42.84;101804.78;8416658;28;20063;-54
2023/04/04 09:58:15;;;;;;;3.70;2.67;;;;;;;14.52;42.90;101811.00;8416408;28;20097;-54
2023/04/04 10:02:17;;;;;;;6.25;2.95;;;;;;;14.62;41.73;101809.22;8418202;28;20239;-54
2023/04/04 10:06:19;;;;;;;5.07;2.60;;;;;;;14.86;39.76;101819.81;8416862;28;20449;-59
2023/04/04 10:10:19;;;;;;;5.90;2.60;;;;;;;13.96;39.86;101812.31;8415785;28;20099;-59
2023/04/04 10:14:33;;;;;;;6.18;3.00;;;;;;;14.23;40.99;101807.25;8450447;28;20036;-55
2023/04/04 10:18:34;;;;;;;5.43;2.37;;;;;;;14.78;41.11;101795.97;8445352;28;20047;-53
2023/04/04 10:22:37;;;;;;;5.20;2.90;;;;;;;15.33;39.95;101784.56;8446802;28;20032;-55
2023/04/04 10:26:38;;;;;;;4.93;2.83;;;;;;;15.03;39.82;101784.59;8442138;28;20044;-55
2023/04/04 10:30:48;;;;;;;5.32;2.72;;;;;;;15.55;39.45;101781.59;8455264;28;20084;-54
2023/04/04 10:34:58;;;;;;;5.65;3.08;;;;;;;15.14;41.57;101784.50;8455361;28;20032;-54
2023/04/04 10:39:12;;;;;;;4.68;2.85;;;;;;;16.27;38.82;101783.88;8456414;28;20442;-55
2023/04/04 10:43:16;;;;;;;8.35;3.75;;;;;;;15.64;38.91;101769.84;8446555;28;20507;-54
2023/04/04 10:47:20;;;;;;;5.75;2.85;;;;;;;16.55;38.77;101761.13;8437004;28;20027;-55
2023/04/04 10:51:21;;;;;;;;;;;;;;;15.73;39.66;101767.28;8439115;28;20040;-56
2023/04/04 10:55:22;;;;;;;4.00;2.67;;;;;;;15.16;38.80;101763.41;8446728;28;19923;-55
2023/04/04 10:59:24;;;;;;;5.13;2.90;;;;;;;16.02;38.65;101751.75;8443555;28;20043;-54
2023/04/04 11:03:24;;;;;;;4.22;2.90;;;;;;;15.21;38.36;101755.69;8436916;28;20320;-55
2023/04/04 11:07:28;;;;;;;4.60;2.95;;;;;;;15.51;37.64;101755.66;8425771;28;20043;-55
2023/04/04 11:11:29;;;;;;;6.32;2.60;;;;;;;16.57;37.50;101742.75;8439837;28;20047;-55
2023/04/04 11:15:50;;;;;;;6.20;3.70;;;;;;;17.13;38.71;101740.75;8453498;28;20050;-54
2023/04/04 11:19:58;;;;;;;4.25;3.00;;;;;;;16.51;36.43;101729.69;8454475;28;20039;-56
2023/04/04 11:24:14;;;;;;;8.63;2.92;;;;;;;17.47;37.14;101728.16;8450634;28;20040;-55
2023/04/04 11:32:48;;;;;;;3.97;3.10;;;;;;;17.26;37.04;101716.66;8377847;27;20345;-53
2023/04/04 11:36:51;;;;;;;7.10;3.75;;;;;;;17.92;35.17;101712.50;8380406;28;20041;-54
2023/04/04 11:40:53;;;;;;;5.68;3.10;;;;;;;17.15;36.39;101711.38;8370444;28;20066;-53
2023/04/04 11:49:09;;;;;;;4.88;3.30;;;;;;;16.57;36.13;101710.84;8313080;28;20480;-53
2023/04/04 11:53:11;;;;;;;4.60;3.30;;;;;;;15.87;38.71;101707.69;8291998;28;20108;-53
2023/04/04 11:57:14;;;;;;;4.43;3.28;;;;;;;16.59;35.76;101707.97;8281353;28;20696;-53
2023/04/04 12:01:15;;;;;;;4.85;2.50;;;;;;;16.82;34.96;101692.88;8281496;28;20123;-53
2023/04/04 12:05:15;;;;;;;4.20;2.80;;;;;;;17.45;35.32;101691.94;8276498;28;20042;-54
2023/04/04 12:09:19;;;;;;;4.45;3.20;;;;;;;16.73;36.22;101682.88;8281196;28;20057;-54
2023/04/04 12:13:19;;;;;;;4.68;3.15;;;;;;;16.73;38.88;101688.34;8279775;28;20110;-54
2023/04/04 12:17:20;;;;;;;5.32;3.15;;;;;;;16.50;37.01;101673.38;8275239;28;20379;-53
2023/04/04 12:21:21;;;;;;;5.63;3.47;;;;;;;17.32;39.60;101662.19;8279476;28;20677;-55
2023/04/04 12:25:23;;;;;;;6.03;3.47;;;;;;;16.34;37.96;101670.38;8292431;28;20408;-53
2023/04/04 12:29:26;;;;;;;7.57;3.10;;;;;;;13.89;39.04;101661.59;8304315;28;20050;-53
2023/04/04 12:33:27;;;;;;;4.32;3.55;;;;;;;13.06;39.79;101659.78;8313260;28;20555;-53
2023/04/04 12:37:28;;;;;;;5.13;3.53;;;;;;;12.72;41.67;101650.00;8312973;28;20471;-53
2023/04/04 12:41:29;;;;;;;6.43;3.65;;;;;;;12.06;43.39;101650.03;8312639;28;20563;-52
2023/04/04 12:45:30;;;;;;;7.97;3.30;;;;;;;12.07;43.78;101643.66;8281341;28;20451;-53
2023/04/04 12:49:41;;;;;;;6.50;3.63;;;;;;;11.79;43.61;101635.00;8265671;28;20501;-54
2023/04/04 12:53:51;;;;;;;4.50;3.28;;;;;;;11.39;43.71;101628.22;8263509;28;20043;-53
2023/04/04 12:57:52;;;;;;;5.97;3.63;;;;;;;11.33;43.55;101642.25;8272031;28;20715;-54
2023/04/04 13:01:52;;;;;;;8.05;3.60;;;;;;;11.22;45.49;101633.19;8258420;28;20456;-53
2023/04/04 13:05:53;;;;;;;5.15;3.15;;;;;;;11.53;45.31;101617.16;8238507;28;20510;-53
2023/04/04 13:09:57;;;;;;;5.57;3.85;;;;;;;11.55;46.65;101609.78;8228430;28;20042;-54
2023/04/04 13:14:00;;;;;;;4.90;3.20;;;;;;;11.46;44.58;101610.50;8249130;28;20496;-53
2023/04/04 13:18:13;;;;;;;5.47;3.55;;;;;;;11.34;44.20;101595.22;8236028;28;20041;-54
2023/04/04 13:22:14;;;;;;;6.05;3.70;;;;;;;11.06;42.45;101598.34;8239905;28;20043;-58
2023/04/04 13:26:14;;;;;;;6.28;3.38;;;;;;;11.15;42.56;101589.50;8256360;28;20045;-58
2023/04/04 13:30:15;;;;;;;9.32;3.42;;;;;;;11.80;45.84;101587.94;8256216;28;20457;-58
2023/04/04 13:34:15;;;;;;;3.72;3.20;;;;;;;11.69;42.91;101568.13;8256628;28;20066;-53
2023/04/04 13:38:16;;;;;;;4.97;3.13;;;;;;;11.98;46.21;101568.50;8257080;28;20523;-54
2023/04/04 13:42:17;;;;;;;6.28;3.60;;;;;;;11.81;45.34;101567.13;8256287;28;20034;-52
2023/04/04 13:46:17;;;;;;;7.93;3.03;;;;;;;11.75;44.63;101563.03;8283141;28;20037;-58
2023/04/04 13:50:18;;;;;;;5.22;2.80;;;;;;;11.74;44.61;101561.34;8285523;28;20050;-58
2023/04/04 13:54:18;;;;;;;8.77;3.85;;;;;;;11.56;44.36;101567.34;8245126;28;20054;-58
2023/04/04 13:58:19;;;;;;;5.57;3.33;;;;;;;11.35;43.31;101553.63;8253989;28;20038;-58
2023/04/04 14:02:19;;;;;;;4.85;3.20;;;;;;;11.37;44.51;101543.53;8259198;28;20042;-55
2023/04/04 14:06:20;;;;;;;5.07;3.22;;;;;;;11.81;44.63;101540.88;8253101;28;20042;-54
2023/04/04 14:10:21;;;;;;;6.13;3.00;;;;;;;11.86;42.98;101533.25;8247333;28;20050;-54
2023/04/04 14:14:21;;;;;;;6.22;3.38;;;;;;;11.68;44.20;101529.31;8251410;28;20042;-54
2023/04/04 14:18:21;;;;;;;4.45;3.13;;;;;;;11.62;43.75;101513.56;8254694;28;20121;-54
2023/04/04 14:22:22;;;;;;;4.70;2.92;;;;;;;11.61;43.07;101522.63;8254809;28;20054;-55
2023/04/04 14:26:22;;;;;;;5.22;3.15;;;;;;;11.66;42.86;101525.88;8250653;28;20534;-54
2023/04/04 14:30:23;;;;;;;5.30;3.22;;;;;;;11.55;43.22;101512.28;8243662;28;20050;-53
2023/04/04 14:34:26;;;;;;;5.68;3.72;;;;;;;11.66;43.89;101503.34;8239087;28;20050;-54
2023/04/04 14:38:27;;;;;;;4.07;3.28;;;;;;;11.54;44.19;101502.47;8242756;28;20544;-53
2023/04/04 14:42:27;;;;;;;6.90;3.60;;;;;;;11.47;43.24;101487.66;8253882;28;20648;-54
2023/04/04 14:46:28;;;;;;;5.53;3.35;;;;;;;11.67;44.49;101495.09;8252903;28;20049;-53
2023/04/04 14:50:28;;;;;;;5.18;3.58;;;;;;;11.77;45.10;101490.66;8252179;28;20057;-53
2023/04/04 14:54:29;;;;;;;7.70;3.70;;;;;;;11.98;46.55;101488.03;8252498;28;20165;-54
2023/04/04 14:58:29;;;;;;;6.20;3.40;;;;;;;12.12;44.03;101484.19;8232151;28;20374;-54
2023/04/04 15:02:30;;;;;;;5.78;2.58;;;;;;;12.00;43.77;101485.19;8245647;28;20088;-54
2023/04/04 15:06:34;;;;;;;4.82;2.88;;;;;;;11.92;43.50;101479.56;8246316;28;20049;-54
2023/04/04 15:10:35;;;;;;;9.65;4.07;;;;;;;12.12;43.44;101478.75;8249409;28;20043;-54
2023/04/04 15:14:35;;;;;;;6.80;3.38;;;;;;;12.21;44.10;101467.16;8249357;28;20080;-53
2023/04/04 15:18:36;;;;;;;5.65;3.38;;;;;;;12.22;44.56;101463.44;8249263;28;20128;-53
2023/04/04 15:22:38;;;;;;;6.75;3.80;;;;;;;12.11;46.06;101463.50;8229874;28;20114;-54
2023/04/04 15:26:39;;;;;;;7.55;3.80;;;;;;;12.01;45.92;101466.09;8232555;28;20528;-54
2023/04/04 15:30:39;;;;;;;10.90;3.75;;;;;;;12.04;45.67;101459.56;8253462;28;20409;-54
2023/04/04 15:34:40;;;;;;;6.80;3.55;;;;;;;11.79;45.72;101461.59;8245217;28;20069;-54
2023/04/04 15:38:40;;;;;;;7.95;3.40;;;;;;;11.80;46.33;101457.88;8245713;28;20511;-54
2023/04/04 15:42:41;;;;;;;10.05;3.55;;;;;;;11.72;45.27;101460.34;8263166;28;20058;-54
2023/04/04 15:46:42;;;;;;;6.20;3.17;;;;;;;11.69;44.83;101466.00;8240769;28;20050;-54
2023/04/04 15:50:42;;;;;;;5.88;3.63;;;;;;;11.65;44.51;101453.72;8247366;28;20049;-53
2023/04/04 15:54:42;;;;;;;5.82;3.25;;;;;;;11.64;44.54;101456.53;8254591;28;20042;-52
2023/04/04 15:58:43;;;;;;;7.03;3.20;;;;;;;11.80;45.30;101449.75;8273608;28;20041;-52
2023/04/04 16:02:43;;;;;;;8.23;3.28;;;;;;;11.76;44.67;101445.59;8249556;28;20359;-52
2023/04/04 16:06:44;;;;;;;6.00;3.47;;;;;;;11.81;45.18;101442.50;8251091;28;20089;-53
2023/04/04 16:10:44;;;;;;;7.18;3.35;;;;;;;11.70;44.60;101448.78;8247862;28;20038;-52
2023/04/04 16:14:45;;;;;;;7.97;2.95;;;;;;;11.50;45.23;101441.38;8255806;28;20038;-53
2023/04/04 16:18:45;;;;;;;7.07;3.13;;;;;;;11.51;45.29;101440.41;8265116;28;20505;-53
2023/04/04 16:22:46;;;;;;;7.30;3.10;;;;;;;11.43;45.29;101434.75;8243587;28;20046;-51
2023/04/04 16:26:47;;;;;;;6.25;3.55;;;;;;;11.35;44.90;101439.91;8243997;28;20092;-51
2023/04/04 16:30:48;;;;;;;5.25;3.33;;;;;;;11.27;45.81;101438.81;8246874;28;20563;-57
2023/04/04 16:34:48;;;;;;;7.43;3.30;;;;;;;11.19;45.46;101433.16;8251634;28;20468;-58
2023/04/04 16:38:49;;;;;;;5.70;3.22;;;;;;;11.11;45.31;101430.19;8257035;28;20066;-58
2023/04/04 16:42:49;;;;;;;8.65;3.38;;;;;;;11.02;46.12;101431.78;8255229;28;20148;-58
2023/04/04 16:46:50;;;;;;;5.43;3.17;;;;;;;11.02;45.42;101425.50;8254942;28;20049;-58
2023/04/04 16:50:50;;;;;;;8.43;3.05;;;;;;;10.90;44.70;101421.94;8257021;28;20100;-57
2023/04/04 16:54:53;;;;;;;7.22;3.03;;;;;;;10.87;45.66;101421.28;8258029;28;20042;-58
2023/04/04 16:58:53;;;;;;;6.22;3.00;;;;;;;10.78;45.18;101422.88;8258798;28;20053;-59
2023/04/04 17:02:54;;;;;;;5.35;3.00;;;;;;;10.72;45.26;101417.09;8258305;28;20038;-53
2023/04/04 17:06:55;;;;;;;5.85;2.92;;;;;;;10.62;45.56;101416.97;8257961;28;20098;-53
2023/04/04 17:10:55;;;;;;;4.53;2.72;;;;;;;10.54;44.53;101419.38;8255054;28;20069;-53
2023/04/04 17:14:56;;;;;;;3.85;2.70;;;;;;;10.44;45.41;101415.66;8257213;28;20141;-54
2023/04/04 17:18:56;;;;;;;6.13;3.35;;;;;;;10.42;45.42;101428.44;8256329;28;20170;-54
2023/04/04 17:22:57;;;;;;;6.28;3.28;;;;;;;10.33;44.96;101426.44;8257087;28;20049;-51
2023/04/04 17:27:00;;;;;;;6.93;3.13;;;;;;;10.32;45.54;101424.72;8274375;28;20073;-53
2023/04/04 17:31:01;;;;;;;8.43;2.92;;;;;;;10.30;45.62;101418.56;8257870;28;20042;-52
2023/04/04 17:35:01;;;;;;;4.30;2.90;;;;;;;10.26;45.75;101414.38;8257031;28;20038;-51
2023/04/04 17:39:02;;;;;;;5.25;3.03;;;;;;;10.07;46.30;101402.38;8254516;28;20173;-54
2023/04/04 17:43:02;;;;;;;10.18;2.90;;;;;;;10.12;46.31;101417.25;8259511;28;20295;-54
2023/04/04 17:47:03;;;;;;;6.57;3.03;;;;;;;9.92;46.50;101415.16;8243321;28;20050;-54
2023/04/04 17:51:04;;;;;;;7.57;3.38;;;;;;;9.87;46.57;101415.50;8252566;28;20126;-54
2023/04/04 17:55:06;;;;;;;5.40;3.40;;;;;;;9.83;47.24;101418.53;8256306;28;20042;-53
2023/04/04 17:59:07;;;;;;;8.00;2.58;;;;;;;9.73;46.50;101414.81;8240082;28;20031;-54
2023/04/04 18:03:07;;;;;;;7.45;3.28;;;;;;;9.69;47.30;101410.59;8258487;28;20030;-54
2023/04/04 18:07:08;;;;;;;6.32;3.15;;;;;;;9.67;46.90;101415.25;8256042;28;20038;-53
2023/04/04 18:11:09;;;;;;;6.70;3.20;;;;;;;9.55;47.89;101413.47;8244786;28;20049;-53
2023/04/04 18:15:11;;;;;;;7.55;3.58;;;;;;;9.44;48.41;101413.38;8249321;28;20054;-54
2023/04/04 18:19:12;;;;;;;7.35;3.70;;;;;;;9.36;47.56;101413.91;8246356;28;20038;-53
2023/04/04 18:23:12;;;;;;;6.03;3.38;;;;;;;9.30;47.52;101408.13;8247882;28;20396;-54
2023/04/04 18:27:13;;;;;;;6.72;3.85;;;;;;;9.27;47.65;101411.03;8249844;28;20046;-55
2023/04/04 18:31:14;;;;;;;10.52;4.43;;;;;;;9.08;48.93;101397.13;8255339;28;20077;-52
2023/04/04 18:35:15;;;;;;;9.25;4.13;;;;;;;9.07;49.29;101408.88;8251855;28;20038;-54
2023/04/04 18:39:17;;;;;;;9.75;3.80;;;;;;;9.05;48.86;101416.22;8254322;28;20045;-54
2023/04/04 18:43:18;;;;;;;9.50;3.95;;;;;;;8.97;49.40;101411.38;8254694;28;20412;-52
2023/04/04 18:47:20;;;;;;;8.95;4.07;;;;;;;8.91;49.20;101409.09;8254182;28;20038;-53
2023/04/04 18:51:20;;;;;;;7.97;3.35;;;;;;;8.84;49.39;101423.16;8254430;28;20433;-56
2023/04/04 18:55:21;;;;;;;5.70;3.22;;;;;;;8.82;49.74;101409.78;8246996;28;20068;-56
2023/04/04 18:59:22;;;;;;;8.43;3.58;;;;;;;8.72;49.91;101418.63;8234520;28;20061;-56